createdAt,value
2023-05-22T00:01:37.580Z,100510.78
2023-05-22T00:04:04.718Z,100522.50
2023-05-22T00:06:31.509Z,100511.44
2023-05-22T00:08:58.034Z,100514.44
2023-05-22T00:11:24.632Z,100512.66
2023-05-22T00:13:51.412Z,100511.97
2023-05-22T00:16:17.935Z,100513.50
2023-05-22T00:18:44.628Z,100499.09
2023-05-22T00:21:11.478Z,100501.44
2023-05-22T00:23:38.097Z,100505.13
2023-05-22T00:26:04.837Z,100494.31
2023-05-22T00:28:31.599Z,100502.63
2023-05-22T00:30:58.186Z,100495.97
2023-05-22T00:33:24.880Z,100494.03
2023-05-22T00:35:51.546Z,100505.00
2023-05-22T00:38:32.712Z,100490.66
2023-05-22T00:41:00.796Z,100492.53
2023-05-22T00:43:27.807Z,100498.38
2023-05-22T00:45:54.585Z,100493.28
2023-05-22T00:48:21.881Z,100488.97
2023-05-22T00:50:50.082Z,100487.28
2023-05-22T00:53:18.337Z,100491.16
2023-05-22T00:55:45.209Z,100493.47
2023-05-22T00:58:17.520Z,100486.28
2023-05-22T01:00:45.311Z,100487.94
2023-05-22T01:03:12.718Z,100485.31
2023-05-22T01:05:40.746Z,100479.63
2023-05-22T01:08:08.584Z,100487.16
2023-05-22T01:10:37.692Z,100484.13
2023-05-22T01:13:28.535Z,100491.66
2023-05-22T01:16:37.255Z,100483.59
2023-05-22T01:19:47.605Z,100485.44
2023-05-22T01:22:32.680Z,100476.75
2023-05-22T01:25:28.865Z,100488.81
2023-05-22T01:28:33.707Z,100480.47
2023-05-22T01:31:14.238Z,100474.56
2023-05-22T01:33:48.210Z,100476.25
2023-05-22T01:36:20.263Z,100472.94
2023-05-22T01:38:47.776Z,100474.25
2023-05-22T01:41:14.912Z,100465.94
2023-05-22T01:43:42.453Z,100485.31
2023-05-22T01:46:09.062Z,100482.50
2023-05-22T01:48:35.840Z,100477.63
2023-05-22T01:51:07.792Z,100479.25
2023-05-22T01:53:46.054Z,100482.59
2023-05-22T01:56:16.536Z,100480.25
2023-05-22T01:58:49.483Z,100490.63
2023-05-22T02:01:19.529Z,100478.59
2023-05-22T02:03:48.577Z,100476.22
2023-05-22T02:06:17.106Z,100484.38
2023-05-22T02:08:44.059Z,100476.41
2023-05-22T02:11:12.500Z,100474.28
2023-05-22T02:13:39.814Z,100479.06
2023-05-22T02:16:07.231Z,100481.06
2023-05-22T02:18:34.078Z,100476.97
2023-05-22T02:21:01.044Z,100473.06
2023-05-22T02:23:29.581Z,100467.22
2023-05-22T02:25:56.581Z,100467.91
2023-05-22T02:28:23.710Z,100467.00
2023-05-22T02:30:50.467Z,100466.50
2023-05-22T02:33:18.522Z,100461.69
2023-05-22T02:35:45.643Z,100466.03
2023-05-22T02:38:12.820Z,100469.03
2023-05-22T02:40:40.233Z,100458.38
2023-05-22T02:43:07.132Z,100451.38
2023-05-22T02:45:33.803Z,100455.41
2023-05-22T02:48:03.374Z,100445.19
2023-05-22T02:50:30.316Z,100444.75
2023-05-22T02:52:56.950Z,100426.56
2023-05-22T02:55:23.690Z,100428.38
2023-05-22T02:57:50.234Z,100420.75
2023-05-22T03:00:17.387Z,100417.09
2023-05-22T03:02:44.161Z,100421.47
2023-05-22T03:05:10.907Z,100415.66
2023-05-22T03:07:37.703Z,100414.84
2023-05-22T03:10:04.646Z,100414.97
2023-05-22T03:12:31.241Z,100412.16
2023-05-22T03:14:58.245Z,100412.81
2023-05-22T03:17:24.926Z,100402.13
2023-05-22T03:19:51.669Z,100403.31
2023-05-22T03:22:21.417Z,100402.78
2023-05-22T03:24:48.083Z,100405.16
2023-05-22T03:27:17.068Z,100400.81
2023-05-22T03:29:43.703Z,100409.66
2023-05-22T03:32:10.997Z,100409.84
2023-05-22T03:34:37.690Z,100412.69
2023-05-22T03:37:08.977Z,100412.34
2023-05-22T03:39:36.146Z,100417.16
2023-05-22T03:42:16.383Z,100415.00
2023-05-22T03:44:42.980Z,100415.94
2023-05-22T03:47:09.636Z,100410.19
2023-05-22T03:49:36.394Z,100414.88
2023-05-22T03:52:04.989Z,100410.63
2023-05-22T03:54:31.618Z,100415.97
2023-05-22T03:56:58.198Z,100417.50
2023-05-22T03:59:24.769Z,100411.31
2023-05-22T04:01:51.420Z,100405.63
2023-05-22T04:04:18.023Z,100404.81
2023-05-22T04:06:45.011Z,100410.84
2023-05-22T04:09:13.068Z,100410.50
2023-05-22T04:11:39.900Z,100405.78
2023-05-22T04:14:06.625Z,100408.63
2023-05-22T04:16:33.744Z,100419.19
2023-05-22T04:19:03.394Z,100408.53
2023-05-22T04:21:34.393Z,100410.81
2023-05-22T04:24:07.085Z,100410.75
2023-05-22T04:26:34.057Z,100410.56
2023-05-22T04:29:01.198Z,100410.44
2023-05-22T04:31:28.587Z,100413.38
2023-05-22T04:33:55.990Z,100409.28
2023-05-22T04:36:25.853Z,100405.81
2023-05-22T04:38:53.957Z,100414.16
2023-05-22T04:41:22.664Z,100411.72
2023-05-22T04:43:52.852Z,100405.47
2023-05-22T04:46:19.787Z,100404.31
2023-05-22T04:48:47.149Z,100403.16
2023-05-22T04:51:14.396Z,100411.41
2023-05-22T04:53:41.200Z,100413.56
2023-05-22T04:56:07.859Z,100410.28
2023-05-22T04:58:34.672Z,100406.09
2023-05-22T05:01:01.349Z,100418.84
2023-05-22T05:03:28.586Z,100410.28
2023-05-22T05:05:56.591Z,100410.47
2023-05-22T05:08:23.244Z,100416.50
2023-05-22T05:10:49.872Z,100423.03
2023-05-22T05:13:17.340Z,100421.69
2023-05-22T05:15:45.648Z,100417.22
2023-05-22T05:18:12.384Z,100407.97
2023-05-22T05:20:39.236Z,100412.34
2023-05-22T05:23:06.136Z,100417.81
2023-05-22T05:25:33.091Z,100418.41
2023-05-22T05:28:00.180Z,100427.75
2023-05-22T05:30:27.601Z,100423.50
2023-05-22T05:33:08.573Z,100425.34
2023-05-22T05:35:42.686Z,100427.88
2023-05-22T05:38:11.103Z,100432.72
2023-05-22T05:40:40.083Z,100432.47
2023-05-22T05:43:09.291Z,100435.03
2023-05-22T05:45:36.402Z,100435.63
2023-05-22T05:48:03.139Z,100434.75
2023-05-22T05:50:30.101Z,100439.38
2023-05-22T05:52:57.111Z,100438.22
2023-05-22T05:55:23.873Z,100436.50
2023-05-22T05:57:51.263Z,100438.84
2023-05-22T06:00:35.083Z,100440.44
2023-05-22T06:03:01.836Z,100441.09
2023-05-22T06:05:52.443Z,100437.88
2023-05-22T06:08:34.446Z,100446.72
2023-05-22T06:11:01.603Z,100448.53
2023-05-22T06:13:38.101Z,100445.91
2023-05-22T06:16:06.743Z,100447.88
2023-05-22T06:18:34.511Z,100439.59
2023-05-22T06:21:01.225Z,100446.06
2023-05-22T06:23:27.865Z,100443.38
2023-05-22T06:25:55.544Z,100443.22
2023-05-22T06:28:22.714Z,100441.38
2023-05-22T06:30:49.425Z,100444.56
2023-05-22T06:33:18.918Z,100445.44
2023-05-22T06:35:45.715Z,100448.41
2023-05-22T06:38:12.642Z,100450.56
2023-05-22T06:40:41.395Z,100446.38
2023-05-22T06:43:13.699Z,100452.00
2023-05-22T06:45:51.242Z,100452.88
2023-05-22T06:48:36.029Z,100454.75
2023-05-22T06:51:10.840Z,100460.84
2023-05-22T06:53:39.505Z,100466.41
2023-05-22T06:56:11.351Z,100460.84
2023-05-22T06:58:56.459Z,100469.44
2023-05-22T07:01:31.371Z,100459.22
2023-05-22T07:04:05.412Z,100462.75
2023-05-22T07:06:52.932Z,100463.38
2023-05-22T07:09:20.070Z,100473.41
2023-05-22T07:11:48.986Z,100465.06
2023-05-22T07:14:16.433Z,100474.59
2023-05-22T07:16:43.742Z,100467.13
2023-05-22T07:19:11.860Z,100472.97
2023-05-22T07:21:39.879Z,100475.09
2023-05-22T07:24:10.880Z,100476.38
2023-05-22T07:26:46.553Z,100481.94
2023-05-22T07:29:14.155Z,100482.91
2023-05-22T07:31:42.166Z,100494.69
2023-05-22T07:34:09.385Z,100479.59
2023-05-22T07:36:36.095Z,100487.38
2023-05-22T07:39:04.990Z,100480.56
2023-05-22T07:41:35.868Z,100488.25
2023-05-22T07:44:02.589Z,100486.09
2023-05-22T07:46:35.370Z,100469.25
2023-05-22T07:49:10.793Z,100483.44
2023-05-22T07:51:41.003Z,100475.22
2023-05-22T07:54:08.292Z,100486.28
2023-05-22T07:56:39.568Z,100476.94
2023-05-22T07:59:07.464Z,100477.97
2023-05-22T08:01:34.065Z,100485.16
2023-05-22T08:04:01.068Z,100479.63
2023-05-22T08:06:27.917Z,100487.63
2023-05-22T08:08:54.540Z,100477.03
2023-05-22T08:11:21.430Z,100482.97
2023-05-22T08:13:48.203Z,100482.31
2023-05-22T08:16:14.856Z,100477.59
2023-05-22T08:18:41.548Z,100487.38
2023-05-22T08:21:08.148Z,100488.94
2023-05-22T08:23:36.354Z,100492.25
2023-05-22T08:26:03.096Z,100490.41
2023-05-22T08:28:29.743Z,100485.63
2023-05-22T08:30:56.509Z,100478.47
2023-05-22T08:33:23.262Z,100489.28
2023-05-22T08:35:49.863Z,100488.88
2023-05-22T08:38:17.551Z,100492.22
2023-05-22T08:40:48.687Z,100485.88
2023-05-22T08:43:15.839Z,100496.09
2023-05-22T08:45:44.092Z,100493.09
2023-05-22T08:48:13.950Z,100493.22
2023-05-22T08:50:46.114Z,100493.25
2023-05-22T08:53:15.309Z,100498.09
2023-05-22T08:55:42.485Z,100487.47
2023-05-22T08:58:11.588Z,100488.78
2023-05-22T09:00:38.516Z,100492.63
2023-05-22T09:03:06.928Z,100489.63
2023-05-22T09:05:34.163Z,100492.50
2023-05-22T09:08:16.147Z,100493.75
2023-05-22T09:10:46.240Z,100495.50
2023-05-22T09:13:27.362Z,100490.56
2023-05-22T09:16:08.119Z,100490.91
2023-05-22T09:18:37.091Z,100502.75
2023-05-22T09:21:08.974Z,100498.06
2023-05-22T09:23:41.763Z,100493.19
2023-05-22T09:26:08.356Z,100497.97
2023-05-22T09:28:36.837Z,100499.28
2023-05-22T09:31:04.309Z,100499.78
2023-05-22T09:33:32.190Z,100497.59
2023-05-22T09:35:59.289Z,100488.72
2023-05-22T09:38:29.240Z,100499.53
2023-05-22T09:40:56.741Z,100498.06
2023-05-22T09:43:25.613Z,100498.41
2023-05-22T09:46:01.769Z,100486.84
2023-05-22T09:48:28.882Z,100492.69
2023-05-22T09:50:57.132Z,100492.72
2023-05-22T09:53:28.087Z,100494.94
2023-05-22T09:55:58.120Z,100491.59
2023-05-22T09:58:27.014Z,100491.16
2023-05-22T10:00:58.177Z,100501.34
2023-05-22T10:03:27.154Z,100492.03
2023-05-22T10:05:56.294Z,100497.81
2023-05-22T10:08:28.501Z,100495.38
2023-05-22T10:10:55.483Z,100494.63
2023-05-22T10:13:22.259Z,100497.84
2023-05-22T10:15:50.427Z,100498.88
2023-05-22T10:18:17.724Z,100503.22
2023-05-22T10:20:47.013Z,100499.16
2023-05-22T10:23:16.260Z,100492.16
2023-05-22T10:25:44.306Z,100499.69
2023-05-22T10:28:12.095Z,100500.16
2023-05-22T10:30:58.393Z,100496.69
2023-05-22T10:33:51.250Z,100498.19
2023-05-22T10:36:41.939Z,100489.59
2023-05-22T10:39:44.208Z,100484.19
2023-05-22T10:42:14.240Z,100487.88
2023-05-22T10:44:41.356Z,100489.09
2023-05-22T10:47:13.189Z,100488.59
2023-05-22T10:49:46.689Z,100483.00
2023-05-22T10:52:18.400Z,100477.44
2023-05-22T10:54:46.245Z,100479.47
2023-05-22T10:57:17.184Z,100480.66
2023-05-22T10:59:47.105Z,100489.19
2023-05-22T11:02:22.233Z,100483.00
2023-05-22T11:04:49.183Z,100478.41
2023-05-22T11:07:15.984Z,100480.69
2023-05-22T11:09:48.029Z,100477.91
2023-05-22T11:12:24.601Z,100473.06
2023-05-22T11:14:58.648Z,100472.25
2023-05-22T11:17:52.008Z,100476.63
2023-05-22T11:20:25.554Z,100480.22
2023-05-22T11:22:59.922Z,100466.63
2023-05-22T11:25:28.161Z,100480.69
2023-05-22T11:27:55.928Z,100471.16
2023-05-22T11:30:28.265Z,100470.06
2023-05-22T11:32:55.153Z,100465.00
2023-05-22T11:35:22.298Z,100464.38
2023-05-22T11:37:51.297Z,100466.41
2023-05-22T11:40:25.875Z,100466.31
2023-05-22T11:42:53.706Z,100465.97
2023-05-22T11:45:20.559Z,100465.47
2023-05-22T11:47:48.744Z,100466.97
2023-05-22T11:50:22.557Z,100458.31
2023-05-22T11:52:53.708Z,100456.59
2023-05-22T11:55:20.387Z,100455.03
2023-05-22T11:57:47.969Z,100465.38
2023-05-22T12:00:15.265Z,100454.44
2023-05-22T12:02:49.261Z,100456.81
2023-05-22T12:05:16.602Z,100455.53
2023-05-22T12:07:43.599Z,100449.91
2023-05-22T12:10:10.955Z,100453.34
2023-05-22T12:12:37.918Z,100452.03
2023-05-22T12:15:08.255Z,100448.50
2023-05-22T12:17:38.509Z,100444.91
2023-05-22T12:20:07.033Z,100456.78
2023-05-22T12:22:33.824Z,100448.84
2023-05-22T12:25:00.475Z,100452.41
2023-05-22T12:27:33.346Z,100434.31
2023-05-22T12:30:09.266Z,100450.72
2023-05-22T12:32:36.540Z,100434.34
2023-05-22T12:35:03.180Z,100446.22
2023-05-22T12:37:31.992Z,100437.94
2023-05-22T12:40:03.696Z,100434.16
2023-05-22T12:42:30.508Z,100433.00
2023-05-22T12:44:58.075Z,100442.50
2023-05-22T12:47:25.307Z,100442.84
2023-05-22T12:49:52.684Z,100431.22
2023-05-22T12:52:19.421Z,100432.88
2023-05-22T12:54:46.367Z,100441.28
2023-05-22T12:57:13.061Z,100433.88
2023-05-22T12:59:39.680Z,100441.28
2023-05-22T13:02:06.937Z,100436.56
2023-05-22T13:04:33.764Z,100433.34
2023-05-22T13:07:01.028Z,100442.34
2023-05-22T13:09:27.828Z,100439.78
2023-05-22T13:11:55.070Z,100440.47
2023-05-22T13:14:21.718Z,100439.16
2023-05-22T13:16:48.421Z,100438.44
2023-05-22T13:19:15.214Z,100448.22
2023-05-22T13:21:43.404Z,100443.25
2023-05-22T13:24:09.997Z,100450.41
2023-05-22T13:26:36.544Z,100440.94
2023-05-22T13:29:03.301Z,100444.09
2023-05-22T13:31:31.347Z,100439.00
2023-05-22T13:33:57.931Z,100426.06
2023-05-22T13:36:24.629Z,100433.00
2023-05-22T13:38:51.173Z,100426.34
2023-05-22T13:41:17.877Z,100438.34
2023-05-22T13:43:44.498Z,100440.94
2023-05-22T13:46:11.352Z,100436.09
2023-05-22T13:48:37.910Z,100442.91
2023-05-22T13:51:04.860Z,100430.94
2023-05-22T13:53:31.502Z,100427.16
2023-05-22T13:55:58.300Z,100421.66
2023-05-22T13:58:25.569Z,100420.81
2023-05-22T14:00:52.131Z,100419.03
2023-05-22T14:03:18.798Z,100427.06
2023-05-22T14:05:45.513Z,100421.16
2023-05-22T14:08:12.616Z,100418.47
2023-05-22T14:10:39.632Z,100431.13
2023-05-22T14:13:06.406Z,100420.06
2023-05-22T14:15:33.170Z,100427.66
2023-05-22T14:17:59.931Z,100428.69
2023-05-22T14:20:26.575Z,100432.56
2023-05-22T14:22:57.736Z,100431.97
2023-05-22T14:25:26.076Z,100430.28
2023-05-22T14:27:52.801Z,100423.25
2023-05-22T14:30:19.592Z,100429.81
2023-05-22T14:32:46.803Z,100427.75
2023-05-22T14:35:13.683Z,100426.66
2023-05-22T14:37:40.333Z,100430.16
2023-05-22T14:40:10.817Z,100417.47
2023-05-22T14:42:37.456Z,100412.16
2023-05-22T14:45:04.596Z,100412.81
2023-05-22T14:47:31.168Z,100425.53
2023-05-22T14:50:03.050Z,100421.56
2023-05-22T14:52:41.131Z,100411.56
2023-05-22T14:55:08.019Z,100408.91
2023-05-22T14:57:34.739Z,100416.72
2023-05-22T15:00:01.478Z,100415.28
2023-05-22T15:02:28.109Z,100400.00
2023-05-22T15:04:54.955Z,100406.69
2023-05-22T15:07:24.386Z,100390.22
2023-05-22T15:09:53.490Z,100391.94
2023-05-22T15:12:21.893Z,100386.88
2023-05-22T15:14:49.333Z,100395.03
2023-05-22T15:17:16.167Z,100391.91
2023-05-22T15:19:45.263Z,100390.06
2023-05-22T15:22:19.514Z,100387.25
2023-05-22T15:24:48.100Z,100382.56
2023-05-22T15:27:14.869Z,100379.50
2023-05-22T15:29:41.961Z,100376.78
2023-05-22T15:32:09.038Z,100372.28
2023-05-22T15:34:35.789Z,100379.94
2023-05-22T15:37:02.439Z,100380.63
2023-05-22T15:39:29.612Z,100387.56
2023-05-22T15:42:05.889Z,100380.94
2023-05-22T15:44:33.732Z,100385.81
2023-05-22T15:47:00.349Z,100391.63
2023-05-22T15:49:30.224Z,100388.38
2023-05-22T15:51:58.486Z,100392.69
2023-05-22T15:54:25.227Z,100400.34
2023-05-22T15:56:51.981Z,100397.78
2023-05-22T15:59:18.553Z,100393.72
2023-05-22T16:01:45.724Z,100395.41
2023-05-22T16:04:12.691Z,100388.91
2023-05-22T16:06:39.435Z,100387.41
2023-05-22T16:09:06.136Z,100385.72
2023-05-22T16:11:33.600Z,100392.22
2023-05-22T16:14:00.298Z,100389.66
2023-05-22T16:16:27.157Z,100397.38
2023-05-22T16:18:53.906Z,100398.19
2023-05-22T16:21:20.910Z,100404.91
2023-05-22T16:23:47.568Z,100428.84
2023-05-22T16:26:14.901Z,100434.63
2023-05-22T16:28:41.458Z,100433.09
2023-05-22T16:31:08.166Z,100449.28
2023-05-22T16:33:37.130Z,100453.72
2023-05-22T16:36:04.390Z,100469.22
2023-05-22T16:38:31.123Z,100468.16
2023-05-22T16:40:57.992Z,100467.28
2023-05-22T16:43:24.656Z,100460.97
2023-05-22T16:45:51.481Z,100474.00
2023-05-22T16:48:18.530Z,100478.09
2023-05-22T16:50:46.596Z,100488.16
2023-05-22T16:53:16.633Z,100480.53
2023-05-22T16:55:43.896Z,100476.72
2023-05-22T16:58:12.686Z,100476.59
2023-05-22T17:00:40.194Z,100475.47
2023-05-22T17:03:08.037Z,100472.13
2023-05-22T17:05:35.178Z,100478.41
2023-05-22T17:08:01.758Z,100473.44
2023-05-22T17:10:28.450Z,100471.09
2023-05-22T17:12:55.049Z,100475.94
2023-05-22T17:15:21.725Z,100475.81
2023-05-22T17:17:48.308Z,100473.47
2023-05-22T17:20:15.026Z,100467.75
2023-05-22T17:22:42.796Z,100466.25
2023-05-22T17:25:09.898Z,100466.94
2023-05-22T17:27:37.061Z,100471.34
2023-05-22T17:30:05.492Z,100471.25
2023-05-22T17:32:32.438Z,100476.66
2023-05-22T17:35:00.089Z,100479.50
2023-05-22T17:37:26.663Z,100479.63
2023-05-22T17:39:53.808Z,100483.25
2023-05-22T17:42:20.449Z,100484.56
2023-05-22T17:44:47.098Z,100477.41
2023-05-22T17:47:13.649Z,100490.84
2023-05-22T17:49:40.407Z,100481.03
2023-05-22T17:52:08.643Z,100490.03
2023-05-22T17:54:36.063Z,100494.84
2023-05-22T17:57:05.472Z,100493.44
2023-05-22T17:59:32.331Z,100497.19
2023-05-22T18:01:59.068Z,100498.16
2023-05-22T18:04:25.910Z,100506.09
2023-05-22T18:06:52.670Z,100503.44
2023-05-22T18:09:19.264Z,100510.28
2023-05-22T18:11:45.890Z,100521.34
2023-05-22T18:14:12.572Z,100531.19
2023-05-22T18:16:39.128Z,100529.78
2023-05-22T18:19:05.873Z,100529.47
2023-05-22T18:21:32.409Z,100538.41
2023-05-22T18:23:59.158Z,100544.78
2023-05-22T18:26:26.778Z,100542.50
2023-05-22T18:28:53.447Z,100547.84
2023-05-22T18:31:20.158Z,100547.59
2023-05-22T18:33:47.035Z,100554.41
2023-05-22T18:36:13.798Z,100554.53
2023-05-22T18:38:40.429Z,100561.50
2023-05-22T18:41:07.879Z,100557.16
2023-05-22T18:43:34.544Z,100563.81
2023-05-22T18:46:01.188Z,100570.91
2023-05-22T18:48:28.221Z,100571.66
2023-05-22T18:50:57.260Z,100582.00
2023-05-22T18:53:25.206Z,100582.00
2023-05-22T18:55:52.447Z,100590.25
2023-05-22T18:58:19.434Z,100592.13
2023-05-22T19:00:46.138Z,100595.31
2023-05-22T19:03:13.872Z,100600.56
2023-05-22T19:05:40.594Z,100602.47
2023-05-22T19:08:07.267Z,100604.19
2023-05-22T19:10:33.938Z,100613.84
2023-05-22T19:13:00.637Z,100607.34
2023-05-22T19:15:27.261Z,100601.63
2023-05-22T19:17:53.961Z,100608.59
2023-05-22T19:20:20.707Z,100603.50
2023-05-22T19:22:47.320Z,100612.78
2023-05-22T19:25:13.902Z,100615.16
2023-05-22T19:27:40.616Z,100615.91
2023-05-22T19:30:07.680Z,100615.28
2023-05-22T19:32:34.362Z,100623.13
2023-05-22T19:35:01.442Z,100626.59
2023-05-22T19:37:29.128Z,100621.69
2023-05-22T19:39:55.723Z,100632.28
2023-05-22T19:42:22.300Z,100627.72
2023-05-22T19:44:48.854Z,100637.25
2023-05-22T19:47:15.397Z,100635.22
2023-05-22T19:49:41.936Z,100636.47
2023-05-22T19:52:08.724Z,100639.25
2023-05-22T19:54:35.790Z,100643.50
2023-05-22T19:57:03.164Z,100646.69
2023-05-22T19:59:29.751Z,100646.44
2023-05-22T20:01:56.439Z,100648.34
2023-05-22T20:04:23.194Z,100650.59
2023-05-22T20:06:50.708Z,100654.41
2023-05-22T20:09:17.310Z,100660.38
2023-05-22T20:11:44.837Z,100659.84
2023-05-22T20:14:12.905Z,100668.19
2023-05-22T20:16:39.497Z,100665.75
2023-05-22T20:19:06.115Z,100674.94
2023-05-22T20:21:32.798Z,100666.50
2023-05-22T20:23:59.457Z,100664.19
2023-05-22T20:26:26.212Z,100669.03
2023-05-22T20:28:52.766Z,100670.66
2023-05-22T20:31:19.453Z,100677.41
2023-05-22T20:33:46.094Z,100676.94
2023-05-22T20:36:14.852Z,100678.66
2023-05-22T20:38:42.514Z,100680.03
2023-05-22T20:41:12.707Z,100690.53
2023-05-22T20:43:42.991Z,100683.72
2023-05-22T20:46:10.136Z,100684.13
2023-05-22T20:48:36.826Z,100691.09
2023-05-22T20:51:03.582Z,100694.56
2023-05-22T20:53:30.131Z,100691.78
2023-05-22T20:55:57.449Z,100698.06
2023-05-22T20:58:24.056Z,100701.63
2023-05-22T21:00:50.709Z,100698.22
2023-05-22T21:03:17.771Z,100696.59
2023-05-22T21:05:44.516Z,100697.84
2023-05-22T21:08:11.128Z,100705.44
2023-05-22T21:10:37.987Z,100699.09
2023-05-22T21:13:04.624Z,100700.03
2023-05-22T21:15:31.245Z,100707.88
2023-05-22T21:17:57.867Z,100705.09
2023-05-22T21:20:24.571Z,100706.91
2023-05-22T21:22:51.122Z,100704.78
2023-05-22T21:25:17.767Z,100712.78
2023-05-22T21:27:46.486Z,100707.09
2023-05-22T21:30:14.639Z,100707.25
2023-05-22T21:32:41.964Z,100709.94
2023-05-22T21:35:09.206Z,100710.38
2023-05-22T21:37:35.771Z,100714.50
2023-05-22T21:40:02.549Z,100716.38
2023-05-22T21:42:41.848Z,100718.03
2023-05-22T21:45:12.318Z,100717.84
2023-05-22T21:47:38.893Z,100726.84
2023-05-22T21:50:06.114Z,100724.47
2023-05-22T21:52:32.644Z,100726.88
2023-05-22T21:55:01.314Z,100737.41
2023-05-22T21:57:28.385Z,100730.72
2023-05-22T21:59:55.310Z,100734.06
2023-05-22T22:02:21.978Z,100732.88
2023-05-22T22:04:48.658Z,100740.81
2023-05-22T22:07:15.261Z,100733.16
2023-05-22T22:09:41.928Z,100735.03
2023-05-22T22:12:08.588Z,100726.63
2023-05-22T22:14:35.365Z,100726.50
2023-05-22T22:17:02.024Z,100725.03
2023-05-22T22:19:28.891Z,100729.91
2023-05-22T22:21:55.690Z,100735.56
2023-05-22T22:24:22.296Z,100730.06
2023-05-22T22:26:49.226Z,100742.53
2023-05-22T22:29:16.113Z,100738.75
2023-05-22T22:31:42.782Z,100733.91
2023-05-22T22:34:09.435Z,100738.66
2023-05-22T22:36:35.979Z,100748.50
2023-05-22T22:39:02.601Z,100744.38
2023-05-22T22:41:29.149Z,100749.03
2023-05-22T22:43:55.985Z,100741.41
2023-05-22T22:46:22.595Z,100734.72
2023-05-22T22:48:49.270Z,100745.56
2023-05-22T22:51:15.905Z,100739.34
2023-05-22T22:53:42.531Z,100733.06
2023-05-22T22:56:09.300Z,100740.97
2023-05-22T22:58:36.437Z,100744.06
2023-05-22T23:01:04.947Z,100735.75
2023-05-22T23:03:31.683Z,100742.88
2023-05-22T23:05:58.257Z,100744.50
2023-05-22T23:08:24.858Z,100740.75
2023-05-22T23:10:51.443Z,100757.94
2023-05-22T23:13:18.150Z,100748.59
2023-05-22T23:15:44.806Z,100748.56
2023-05-22T23:18:13.842Z,100749.53
2023-05-22T23:20:40.521Z,100744.09
2023-05-22T23:23:07.249Z,100743.06
2023-05-22T23:25:33.880Z,100741.59
2023-05-22T23:28:00.557Z,100743.03
2023-05-22T23:30:27.123Z,100734.47
2023-05-22T23:32:53.786Z,100738.00
2023-05-22T23:35:20.409Z,100738.47
2023-05-22T23:37:47.009Z,100743.91
2023-05-22T23:40:13.556Z,100748.97
2023-05-22T23:42:40.727Z,100738.03
2023-05-22T23:45:07.873Z,100731.97
2023-05-22T23:47:34.614Z,100725.50
2023-05-22T23:50:01.178Z,100722.06
2023-05-22T23:52:27.891Z,100722.47
2023-05-22T23:54:54.433Z,100721.03
2023-05-22T23:57:21.143Z,100724.22
2023-05-22T23:59:47.674Z,100723.00
